createdAt,value
2023-03-08T00:01:52.695Z,40.07
2023-03-08T00:04:19.174Z,37.60
2023-03-08T00:06:45.553Z,32.83
2023-03-08T00:09:11.845Z,38.97
2023-03-08T00:11:38.188Z,40.87
2023-03-08T00:14:04.426Z,39.70
2023-03-08T00:16:30.689Z,36.30
2023-03-08T00:18:56.963Z,37.03
2023-03-08T00:21:23.301Z,37.73
2023-03-08T00:23:51.834Z,34.20
2023-03-08T00:26:18.082Z,33.17
2023-03-08T00:28:45.425Z,35.07
2023-03-08T00:31:12.827Z,32.77
2023-03-08T00:33:39.614Z,28.93
2023-03-08T00:36:13.237Z,26.33
2023-03-08T00:38:39.492Z,29.80
2023-03-08T00:41:05.956Z,28.33
2023-03-08T00:43:32.423Z,28.70
2023-03-08T00:45:58.813Z,27.33
2023-03-08T00:48:25.198Z,31.33
2023-03-08T00:50:51.613Z,29.87
2023-03-08T00:53:18.177Z,33.40
2023-03-08T00:55:48.721Z,31.83
2023-03-08T00:58:14.981Z,28.33
2023-03-08T01:00:41.249Z,29.73
2023-03-08T01:03:07.557Z,32.00
2023-03-08T01:05:33.807Z,33.30
2023-03-08T01:08:02.739Z,33.03
2023-03-08T01:10:29.009Z,30.60
2023-03-08T01:12:55.254Z,31.17
2023-03-08T01:15:21.523Z,29.67
2023-03-08T01:17:47.780Z,32.27
2023-03-08T01:20:14.028Z,30.07
2023-03-08T01:22:40.331Z,34.03
2023-03-08T01:25:06.710Z,37.60
2023-03-08T01:27:33.009Z,34.50
2023-03-08T01:29:59.311Z,33.80
2023-03-08T01:32:25.822Z,29.50
2023-03-08T01:34:52.236Z,29.70
2023-03-08T01:37:18.631Z,31.70
2023-03-08T01:39:44.892Z,33.60
2023-03-08T01:42:11.202Z,29.83
2023-03-08T01:44:54.783Z,30.87
2023-03-08T01:47:22.485Z,31.10
2023-03-08T01:49:49.206Z,29.17
2023-03-08T01:52:33.290Z,34.00
2023-03-08T01:55:01.578Z,32.90
2023-03-08T01:57:36.807Z,28.70
2023-03-08T02:00:09.368Z,30.93
2023-03-08T02:02:39.978Z,32.43
2023-03-08T02:05:07.750Z,28.37
2023-03-08T02:07:34.022Z,31.47
2023-03-08T02:10:00.330Z,31.13
2023-03-08T02:12:26.766Z,31.80
2023-03-08T02:14:53.166Z,27.20
2023-03-08T02:17:19.445Z,31.23
2023-03-08T02:19:52.498Z,29.20
2023-03-08T02:22:19.888Z,33.70
2023-03-08T02:24:46.303Z,27.23
2023-03-08T02:27:14.632Z,25.53
2023-03-08T02:29:41.304Z,26.90
2023-03-08T02:32:08.151Z,25.87
2023-03-08T02:34:34.584Z,32.00
2023-03-08T02:37:01.003Z,29.23
2023-03-08T02:39:27.652Z,26.80
2023-03-08T02:41:53.954Z,25.87
2023-03-08T02:44:20.237Z,28.70
2023-03-08T02:46:46.591Z,24.57
2023-03-08T02:49:12.868Z,21.37
2023-03-08T02:51:39.258Z,26.43
2023-03-08T02:54:05.541Z,21.93
2023-03-08T02:56:31.784Z,22.67
2023-03-08T02:58:58.027Z,22.37
2023-03-08T03:01:24.362Z,18.87
2023-03-08T03:03:53.241Z,20.20
2023-03-08T03:06:20.336Z,15.73
2023-03-08T03:08:47.100Z,18.60
2023-03-08T03:11:17.502Z,15.17
2023-03-08T03:13:44.290Z,16.73
2023-03-08T03:16:12.205Z,15.93
2023-03-08T03:18:38.515Z,12.30
2023-03-08T03:21:06.018Z,17.57
2023-03-08T03:23:32.297Z,14.80
2023-03-08T03:26:04.544Z,12.03
2023-03-08T03:28:30.791Z,14.13
2023-03-08T03:30:57.109Z,9.87
2023-03-08T03:33:23.455Z,9.20
2023-03-08T03:35:49.880Z,10.93
2023-03-08T03:38:16.376Z,11.23
2023-03-08T03:40:42.723Z,11.53
2023-03-08T03:43:09.071Z,9.43
2023-03-08T03:45:35.409Z,9.73
2023-03-08T03:48:01.720Z,10.20
2023-03-08T03:50:28.103Z,11.13
2023-03-08T03:52:54.691Z,13.13
2023-03-08T03:55:20.971Z,11.97
2023-03-08T03:57:47.329Z,12.40
2023-03-08T04:00:13.898Z,13.17
2023-03-08T04:02:40.320Z,11.37
2023-03-08T04:05:08.427Z,11.00
2023-03-08T04:07:34.670Z,9.97
2023-03-08T04:10:00.937Z,10.10
2023-03-08T04:12:27.256Z,9.10
2023-03-08T04:14:53.807Z,8.43
2023-03-08T04:17:20.054Z,7.50
2023-03-08T04:19:48.035Z,9.50
2023-03-08T04:22:14.382Z,8.33
2023-03-08T04:24:40.646Z,8.70
2023-03-08T04:27:06.894Z,6.73
2023-03-08T04:29:33.160Z,7.13
2023-03-08T04:32:00.286Z,8.90
2023-03-08T04:34:27.378Z,7.47
2023-03-08T04:36:53.630Z,7.87
2023-03-08T04:39:19.884Z,6.70
2023-03-08T04:41:46.129Z,8.53
2023-03-08T04:44:12.487Z,8.20
2023-03-08T04:46:39.036Z,9.27
2023-03-08T04:49:05.305Z,7.63
2023-03-08T04:51:31.588Z,8.53
2023-03-08T04:53:57.888Z,8.57
2023-03-08T04:56:24.144Z,9.23
2023-03-08T04:58:50.510Z,11.20
2023-03-08T05:01:22.175Z,9.77
2023-03-08T05:03:51.642Z,9.53
2023-03-08T05:06:18.790Z,9.83
2023-03-08T05:08:45.061Z,8.17
2023-03-08T05:11:17.890Z,7.87
2023-03-08T05:13:44.133Z,5.77
2023-03-08T05:16:10.486Z,5.67
2023-03-08T05:18:36.771Z,6.07
2023-03-08T05:21:05.039Z,6.97
2023-03-08T05:23:31.857Z,7.47
2023-03-08T05:25:59.120Z,8.00
2023-03-08T05:28:26.294Z,6.57
2023-03-08T05:31:02.451Z,5.53
2023-03-08T05:33:28.694Z,8.07
2023-03-08T05:35:55.139Z,8.87
2023-03-08T05:38:22.172Z,9.27
2023-03-08T05:40:49.495Z,10.97
2023-03-08T05:43:16.506Z,10.47
2023-03-08T05:45:43.025Z,11.20
2023-03-08T05:48:09.364Z,12.10
2023-03-08T05:50:37.156Z,13.17
2023-03-08T05:53:03.524Z,17.07
2023-03-08T05:55:29.766Z,15.17
2023-03-08T05:57:56.086Z,15.57
2023-03-08T06:00:22.570Z,14.30
2023-03-08T06:02:48.993Z,13.30
2023-03-08T06:05:15.328Z,17.93
2023-03-08T06:07:43.665Z,15.07
2023-03-08T06:10:10.210Z,14.67
2023-03-08T06:12:36.482Z,15.10
2023-03-08T06:15:02.822Z,15.70
2023-03-08T06:17:29.075Z,14.10
2023-03-08T06:19:55.369Z,14.30
2023-03-08T06:22:21.679Z,15.70
2023-03-08T06:24:49.870Z,17.27
2023-03-08T06:27:17.523Z,13.77
2023-03-08T06:29:43.814Z,341.17
2023-03-08T06:32:10.101Z,15.00
2023-03-08T06:34:36.413Z,15.60
2023-03-08T06:37:02.735Z,14.03
2023-03-08T06:39:30.886Z,11.63
2023-03-08T06:41:57.606Z,12.23
2023-03-08T06:44:23.916Z,12.10
2023-03-08T06:46:50.159Z,13.97
2023-03-08T06:49:16.389Z,14.87
2023-03-08T06:51:42.689Z,15.40
2023-03-08T06:54:08.959Z,16.37
2023-03-08T06:56:35.224Z,14.90
2023-03-08T06:59:01.480Z,14.03
2023-03-08T07:01:27.792Z,13.67
2023-03-08T07:03:54.099Z,16.53
2023-03-08T07:06:20.495Z,16.57
2023-03-08T07:08:46.842Z,16.03
2023-03-08T07:11:13.122Z,16.30
2023-03-08T07:13:39.413Z,15.00
2023-03-08T07:16:10.176Z,12.63
2023-03-08T07:18:36.499Z,14.97
2023-03-08T07:21:02.812Z,14.60
2023-03-08T07:23:29.183Z,13.57
2023-03-08T07:25:55.448Z,12.17
2023-03-08T07:28:21.747Z,12.67
2023-03-08T07:30:48.919Z,12.30
2023-03-08T07:33:15.250Z,10.57
2023-03-08T07:35:41.602Z,11.20
2023-03-08T07:38:07.922Z,11.20
2023-03-08T07:40:34.201Z,11.43
2023-03-08T07:43:00.960Z,11.10
2023-03-08T07:45:27.217Z,9.73
2023-03-08T07:47:53.499Z,8.57
2023-03-08T07:50:20.733Z,8.00
2023-03-08T07:52:47.254Z,9.13
2023-03-08T07:55:13.882Z,9.23
2023-03-08T07:57:40.435Z,10.20
2023-03-08T08:00:07.585Z,8.47
2023-03-08T08:02:34.374Z,8.57
2023-03-08T08:05:00.890Z,7.63
2023-03-08T08:07:27.181Z,9.13
2023-03-08T08:09:54.592Z,8.40
2023-03-08T08:12:20.914Z,10.57
2023-03-08T08:14:47.225Z,6.33
2023-03-08T08:17:13.602Z,11.53
2023-03-08T08:19:39.970Z,8.03
2023-03-08T08:22:06.468Z,13.23
2023-03-08T08:24:32.858Z,12.67
2023-03-08T08:26:59.146Z,7.03
2023-03-08T08:29:25.402Z,8.43
2023-03-08T08:31:52.936Z,6.60
2023-03-08T08:34:22.594Z,11.57
2023-03-08T08:36:48.862Z,8.77
2023-03-08T08:39:15.120Z,19.07
2023-03-08T08:41:41.442Z,18.30
2023-03-08T08:44:07.807Z,11.73
2023-03-08T08:46:35.034Z,13.13
2023-03-08T08:49:02.245Z,59.07
2023-03-08T08:51:28.485Z,65.10
2023-03-08T08:53:55.410Z,58.43
2023-03-08T08:56:27.276Z,85.03
2023-03-08T08:58:55.914Z,102.93
2023-03-08T09:01:23.469Z,70.33
2023-03-08T09:03:49.799Z,100.00
2023-03-08T09:06:17.041Z,64.67
2023-03-08T09:08:43.352Z,76.53
2023-03-08T09:11:10.709Z,176.27
2023-03-08T09:13:40.586Z,185.73
2023-03-08T09:16:07.082Z,100.00
2023-03-08T09:18:33.364Z,115.47
2023-03-08T09:21:00.764Z,84.87
2023-03-08T09:23:27.931Z,54.97
2023-03-08T09:25:54.857Z,54.23
2023-03-08T09:28:21.136Z,31.30
2023-03-08T09:30:47.388Z,129.03
2023-03-08T09:33:13.627Z,57.67
2023-03-08T09:35:40.078Z,17.23
2023-03-08T09:38:06.573Z,64.37
2023-03-08T09:40:36.436Z,62.67
2023-03-08T09:43:04.956Z,42.10
2023-03-08T09:45:31.234Z,65.23
2023-03-08T09:47:58.459Z,67.03
2023-03-08T09:50:32.244Z,62.63
2023-03-08T09:53:04.280Z,78.37
2023-03-08T09:55:32.469Z,31.17
2023-03-08T09:58:16.800Z,22.73
2023-03-08T10:00:43.866Z,37.93
2023-03-08T10:03:25.103Z,30.37
2023-03-08T10:06:02.462Z,60.43
2023-03-08T10:08:41.111Z,104.37
2023-03-08T10:11:15.559Z,29.77
2023-03-08T10:13:43.923Z,44.43
2023-03-08T10:16:20.885Z,19.37
2023-03-08T10:19:01.671Z,54.97
2023-03-08T10:21:29.452Z,7.03
2023-03-08T10:24:00.715Z,3.53
2023-03-08T10:26:27.725Z,10.23
2023-03-08T10:28:54.273Z,3.37
2023-03-08T10:31:22.544Z,2.93
2023-03-08T10:33:50.307Z,2.90
2023-03-08T10:36:21.749Z,5.67
2023-03-08T10:38:59.047Z,2.10
2023-03-08T10:41:25.995Z,1.93
2023-03-08T10:43:53.605Z,1.57
2023-03-08T10:46:22.237Z,1.70
2023-03-08T10:48:48.978Z,1.70
2023-03-08T10:51:16.799Z,2.43
2023-03-08T10:53:52.513Z,5.50
2023-03-08T10:56:23.496Z,7.47
2023-03-08T10:58:53.948Z,22.43
2023-03-08T11:01:28.513Z,31.27
2023-03-08T11:04:15.367Z,223.97
2023-03-08T11:06:41.683Z,48.57
2023-03-08T11:09:20.352Z,89.20
2023-03-08T11:11:46.634Z,108.57
2023-03-08T11:14:13.300Z,17.23
2023-03-08T11:16:48.563Z,19.57
2023-03-08T11:19:40.316Z,25.17
2023-03-08T11:22:24.318Z,46.07
2023-03-08T11:25:03.809Z,126.73
2023-03-08T11:27:55.158Z,68.20
2023-03-08T11:30:21.469Z,19.20
2023-03-08T11:33:12.887Z,152.83
2023-03-08T11:35:42.723Z,420.87
2023-03-08T11:38:17.771Z,52.20
2023-03-08T11:40:50.844Z,120.33
2023-03-08T11:43:30.007Z,284.73
2023-03-08T11:46:06.887Z,529.77
2023-03-08T11:48:33.161Z,582.07
2023-03-08T11:51:11.684Z,715.93
2023-03-08T11:53:44.145Z,596.90
2023-03-08T11:56:17.906Z,530.67
2023-03-08T11:58:51.923Z,455.53
2023-03-08T12:01:20.854Z,454.93
2023-03-08T12:03:49.602Z,386.47
2023-03-08T12:06:29.125Z,621.53
2023-03-08T12:09:00.225Z,223.90
2023-03-08T12:11:31.636Z,293.23
2023-03-08T12:14:02.624Z,75.67
2023-03-08T12:16:35.017Z,37.53
2023-03-08T12:19:10.720Z,10.77
2023-03-08T12:21:55.450Z,13.25
2023-03-08T12:24:35.182Z,7.65
2023-03-08T12:27:10.370Z,11.03
2023-03-08T12:29:43.138Z,7.63
2023-03-08T12:32:11.108Z,10.70
2023-03-08T12:34:45.110Z,7.97
2023-03-08T12:37:37.848Z,12.75
2023-03-08T12:40:26.220Z,12.68
2023-03-08T12:43:03.600Z,11.60
2023-03-08T12:45:31.427Z,10.07
2023-03-08T12:48:08.548Z,9.60
2023-03-08T12:50:42.807Z,9.63
2023-03-08T12:53:26.058Z,13.32
2023-03-08T12:56:10.814Z,11.45
2023-03-08T12:58:47.428Z,11.75
2023-03-08T13:01:28.727Z,9.52
2023-03-08T13:03:55.193Z,6.10
2023-03-08T13:06:25.513Z,7.10
2023-03-08T13:09:00.396Z,4.70
2023-03-08T13:11:37.508Z,7.90
2023-03-08T13:14:05.893Z,9.15
2023-03-08T13:16:36.884Z,6.13
2023-03-08T13:19:09.009Z,5.00
2023-03-08T13:21:39.067Z,4.65
2023-03-08T13:24:13.639Z,3.55
2023-03-08T13:26:49.776Z,6.10
2023-03-08T13:29:17.360Z,6.60
2023-03-08T13:31:44.625Z,7.13
2023-03-08T13:34:25.419Z,6.95
2023-03-08T13:36:51.740Z,7.00
2023-03-08T13:39:23.030Z,6.45
2023-03-08T13:41:49.386Z,6.82
2023-03-08T13:44:23.329Z,6.35
2023-03-08T13:46:51.849Z,5.68
2023-03-08T13:49:32.152Z,5.78
2023-03-08T13:52:02.155Z,8.35
2023-03-08T13:54:36.798Z,4.78
2023-03-08T13:57:05.402Z,4.25
2023-03-08T13:59:31.992Z,1.85
2023-03-08T14:01:58.592Z,1.90
2023-03-08T14:04:26.647Z,1.98
2023-03-08T14:06:54.294Z,4.95
2023-03-08T14:09:20.793Z,3.70
2023-03-08T14:11:53.524Z,4.18
2023-03-08T14:14:26.364Z,3.47
2023-03-08T14:16:53.913Z,3.08
2023-03-08T14:19:39.585Z,6.85
2023-03-08T14:22:32.153Z,4.75
2023-03-08T14:25:05.211Z,4.03
2023-03-08T14:27:41.612Z,4.68
2023-03-08T14:30:18.784Z,4.30
2023-03-08T14:33:14.430Z,5.18
2023-03-08T14:35:43.309Z,5.72
2023-03-08T14:38:13.546Z,9.10
2023-03-08T14:40:46.323Z,5.70
2023-03-08T14:43:16.193Z,8.68
2023-03-08T14:45:50.331Z,5.88
2023-03-08T14:48:19.782Z,4.85
2023-03-08T14:50:55.060Z,7.35
2023-03-08T14:53:25.989Z,9.95
2023-03-08T14:55:52.248Z,8.00
2023-03-08T14:58:18.721Z,7.55
2023-03-08T15:00:48.848Z,6.78
2023-03-08T15:03:15.094Z,6.75
2023-03-08T15:05:42.665Z,8.00
2023-03-08T15:08:10.350Z,7.32
2023-03-08T15:10:37.760Z,7.72
2023-03-08T15:13:05.023Z,12.13
2023-03-08T15:15:31.285Z,10.30
2023-03-08T15:17:57.594Z,12.20
2023-03-08T15:20:24.902Z,7.32
2023-03-08T15:22:55.865Z,6.45
2023-03-08T15:25:26.462Z,9.75
2023-03-08T15:27:52.829Z,9.55
2023-03-08T15:30:23.561Z,10.57
2023-03-08T15:32:50.060Z,3.60
2023-03-08T15:35:16.544Z,3.90
2023-03-08T15:37:43.305Z,3.20
2023-03-08T15:40:12.112Z,4.20
2023-03-08T15:42:38.346Z,1.80
2023-03-08T15:45:04.822Z,4.10
2023-03-08T15:47:31.262Z,4.53
2023-03-08T15:49:57.680Z,3.67
2023-03-08T15:52:30.105Z,7.03
2023-03-08T15:54:57.088Z,6.63
2023-03-08T15:57:23.378Z,4.45
2023-03-08T15:59:51.582Z,3.65
2023-03-08T16:02:18.856Z,5.65
2023-03-08T16:04:49.070Z,6.13
2023-03-08T16:07:17.470Z,4.40
2023-03-08T16:09:44.244Z,1.63
2023-03-08T16:12:10.867Z,3.88
2023-03-08T16:14:37.400Z,3.10
2023-03-08T16:17:04.726Z,2.50
2023-03-08T16:19:32.264Z,2.05
2023-03-08T16:21:58.546Z,4.25
2023-03-08T16:24:24.955Z,3.42
2023-03-08T16:26:51.384Z,4.20
2023-03-08T16:29:17.746Z,4.13
2023-03-08T16:31:44.179Z,8.85
2023-03-08T16:34:11.450Z,4.22
2023-03-08T16:36:37.806Z,5.80
2023-03-08T16:39:05.558Z,5.05
2023-03-08T16:41:38.750Z,4.35
2023-03-08T16:44:06.346Z,3.22
2023-03-08T16:46:33.112Z,4.43
2023-03-08T16:48:59.754Z,5.57
2023-03-08T16:51:27.562Z,4.07
2023-03-08T16:53:54.400Z,6.40
2023-03-08T16:56:25.506Z,4.13
2023-03-08T16:58:52.875Z,2.78
2023-03-08T17:01:19.766Z,6.82
2023-03-08T17:03:46.147Z,4.95
2023-03-08T17:06:13.782Z,7.28
2023-03-08T17:08:40.354Z,5.93
2023-03-08T17:11:14.367Z,4.38
2023-03-08T17:13:40.753Z,6.25
2023-03-08T17:16:10.488Z,4.53
2023-03-08T17:18:36.758Z,6.30
2023-03-08T17:21:04.942Z,2.72
2023-03-08T17:23:31.548Z,3.25
2023-03-08T17:25:57.873Z,5.88
2023-03-08T17:28:24.147Z,11.15
2023-03-08T17:30:50.415Z,6.88
2023-03-08T17:33:17.591Z,6.00
2023-03-08T17:35:43.997Z,8.32
2023-03-08T17:38:10.591Z,8.07
2023-03-08T17:40:38.775Z,6.82
2023-03-08T17:43:05.071Z,4.97
2023-03-08T17:45:31.489Z,7.05
2023-03-08T17:48:02.482Z,4.00
2023-03-08T17:50:32.112Z,10.30
2023-03-08T17:52:58.559Z,8.05
2023-03-08T17:55:25.332Z,7.65
2023-03-08T17:57:51.717Z,6.20
2023-03-08T18:00:19.269Z,8.95
2023-03-08T18:02:46.012Z,5.13
2023-03-08T18:05:13.801Z,11.27
2023-03-08T18:07:41.862Z,7.85
2023-03-08T18:10:10.822Z,9.13
2023-03-08T18:12:37.132Z,9.88
2023-03-08T18:15:04.442Z,9.45
2023-03-08T18:17:30.765Z,6.15
2023-03-08T18:19:57.149Z,8.52
2023-03-08T18:22:23.387Z,7.18
2023-03-08T18:24:49.640Z,8.45
2023-03-08T18:27:15.918Z,14.85
2023-03-08T18:29:42.168Z,5.07
2023-03-08T18:32:10.016Z,8.65
2023-03-08T18:34:36.976Z,11.18
2023-03-08T18:37:03.274Z,11.82
2023-03-08T18:39:29.561Z,5.57
2023-03-08T18:41:57.980Z,5.57
2023-03-08T18:44:24.291Z,6.72
2023-03-08T18:46:50.724Z,6.13
2023-03-08T18:49:17.028Z,8.20
2023-03-08T18:51:43.690Z,6.68
2023-03-08T18:54:11.099Z,10.48
2023-03-08T18:56:37.492Z,12.70
2023-03-08T18:59:05.014Z,9.40
2023-03-08T19:01:31.840Z,12.15
2023-03-08T19:03:59.414Z,9.77
2023-03-08T19:06:26.135Z,7.72
2023-03-08T19:08:52.402Z,12.05
2023-03-08T19:11:19.944Z,7.20
2023-03-08T19:13:46.966Z,6.30
2023-03-08T19:16:17.864Z,6.50
2023-03-08T19:18:44.328Z,7.82
2023-03-08T19:21:18.223Z,7.60
2023-03-08T19:23:44.660Z,6.03
2023-03-08T19:26:47.615Z,4.68
2023-03-08T19:29:15.400Z,7.75
2023-03-08T19:31:50.912Z,4.60
2023-03-08T19:34:17.964Z,6.28
2023-03-08T19:36:44.974Z,8.38
2023-03-08T19:39:14.447Z,6.80
2023-03-08T19:41:40.894Z,10.18
2023-03-08T19:44:07.755Z,5.32
2023-03-08T19:46:34.988Z,7.60
2023-03-08T19:49:01.362Z,4.63
2023-03-08T19:51:27.713Z,11.60
2023-03-08T19:53:54.341Z,7.63
2023-03-08T19:56:20.746Z,8.93
2023-03-08T19:58:47.830Z,10.63
2023-03-08T20:01:15.793Z,5.18
2023-03-08T20:03:42.705Z,8.23
2023-03-08T20:06:09.249Z,6.68
2023-03-08T20:08:37.015Z,7.70
2023-03-08T20:11:03.721Z,13.13
2023-03-08T20:13:30.483Z,11.68
2023-03-08T20:15:57.106Z,13.65
2023-03-08T20:18:23.456Z,13.75
2023-03-08T20:20:50.258Z,16.35
2023-03-08T20:23:17.282Z,13.65
2023-03-08T20:25:44.012Z,21.17
2023-03-08T20:28:10.534Z,14.40
2023-03-08T20:30:37.629Z,16.63
2023-03-08T20:33:04.292Z,17.05
2023-03-08T20:35:30.753Z,21.40
2023-03-08T20:37:57.114Z,13.90
2023-03-08T20:40:23.464Z,13.10
2023-03-08T20:42:49.970Z,14.85
2023-03-08T20:45:16.334Z,12.25
2023-03-08T20:47:42.662Z,14.23
2023-03-08T20:50:09.351Z,12.63
2023-03-08T20:52:35.813Z,13.90
2023-03-08T20:55:02.139Z,11.52
2023-03-08T20:57:28.549Z,12.68
2023-03-08T20:59:54.857Z,12.55
2023-03-08T21:02:21.157Z,12.25
2023-03-08T21:04:47.443Z,12.77
2023-03-08T21:07:13.695Z,11.98
2023-03-08T21:09:40.088Z,13.25
2023-03-08T21:12:07.793Z,12.30
2023-03-08T21:14:34.026Z,10.15
2023-03-08T21:17:00.385Z,10.77
2023-03-08T21:19:26.753Z,12.07
2023-03-08T21:21:53.117Z,10.32
2023-03-08T21:24:21.062Z,11.40
2023-03-08T21:26:47.549Z,12.05
2023-03-08T21:29:15.425Z,10.88
2023-03-08T21:31:43.525Z,10.73
2023-03-08T21:34:11.150Z,11.80
2023-03-08T21:36:38.003Z,11.07
2023-03-08T21:39:05.136Z,11.23
2023-03-08T21:41:33.070Z,10.13
2023-03-08T21:44:00.862Z,7.90
2023-03-08T21:46:27.402Z,7.18
2023-03-08T21:48:54.690Z,6.25
2023-03-08T21:51:21.286Z,5.00
2023-03-08T21:53:47.671Z,4.50
2023-03-08T21:56:15.417Z,4.72
2023-03-08T21:58:41.951Z,5.63
2023-03-08T22:01:16.819Z,5.43
2023-03-08T22:03:43.203Z,5.20
2023-03-08T22:06:09.602Z,5.38
2023-03-08T22:08:35.866Z,6.13
2023-03-08T22:11:02.117Z,4.95
2023-03-08T22:13:28.484Z,8.57
2023-03-08T22:15:55.099Z,12.60
2023-03-08T22:18:21.366Z,9.43
2023-03-08T22:20:47.594Z,8.35
2023-03-08T22:23:13.879Z,7.35
2023-03-08T22:25:40.114Z,6.38
2023-03-08T22:28:06.388Z,9.35
2023-03-08T22:30:32.667Z,8.95
2023-03-08T22:32:59.066Z,11.73
2023-03-08T22:35:25.353Z,13.48
2023-03-08T22:37:51.632Z,9.80
2023-03-08T22:40:19.272Z,8.25
2023-03-08T22:42:46.015Z,10.43
2023-03-08T22:45:12.551Z,8.75
2023-03-08T22:47:38.827Z,14.75
2023-03-08T22:50:05.522Z,19.98
2023-03-08T22:52:32.016Z,15.35
2023-03-08T22:54:58.260Z,15.50
2023-03-08T22:57:24.511Z,9.88
2023-03-08T22:59:54.576Z,13.85
2023-03-08T23:02:20.835Z,12.25
2023-03-08T23:04:47.343Z,12.48
2023-03-08T23:07:13.587Z,6.85
2023-03-08T23:09:39.868Z,10.88
2023-03-08T23:12:06.294Z,10.30
2023-03-08T23:14:35.746Z,7.28
2023-03-08T23:17:02.003Z,7.78
2023-03-08T23:19:28.318Z,4.68
2023-03-08T23:21:55.585Z,6.72
2023-03-08T23:24:21.877Z,6.40
2023-03-08T23:26:48.307Z,11.88
2023-03-08T23:29:14.852Z,17.92
2023-03-08T23:31:42.890Z,15.27
2023-03-08T23:34:09.171Z,49.55
2023-03-08T23:36:35.481Z,53.33
2023-03-08T23:39:03.218Z,8.57
2023-03-08T23:41:29.883Z,3.33
2023-03-08T23:43:57.238Z,0.80
2023-03-08T23:46:23.953Z,1.55
2023-03-08T23:48:50.457Z,3.28
2023-03-08T23:51:20.125Z,3.03
2023-03-08T23:53:53.638Z,3.72
2023-03-08T23:56:26.376Z,4.53
2023-03-08T23:58:54.262Z,4.05
